createdAt,value
2022-10-17T00:03:12.693Z,17.60
2022-10-17T00:08:16.198Z,17.60
2022-10-17T00:13:17.837Z,17.70
2022-10-17T00:18:19.601Z,17.70
2022-10-17T00:23:21.325Z,17.70
2022-10-17T00:28:23.136Z,17.80
2022-10-17T00:33:25.109Z,17.70
2022-10-17T00:38:26.767Z,17.70
2022-10-17T00:43:29.744Z,17.70
2022-10-17T00:48:31.466Z,17.60
2022-10-17T00:53:34.580Z,17.60
2022-10-17T00:58:36.246Z,17.60
2022-10-17T01:03:38.009Z,17.50
2022-10-17T01:08:39.999Z,17.50
2022-10-17T01:14:31.303Z,17.50
2022-10-17T01:20:11.156Z,17.40
2022-10-17T01:26:14.301Z,17.30
2022-10-17T01:31:22.616Z,17.20
2022-10-17T01:37:03.681Z,17.20
2022-10-17T01:42:31.357Z,17.20
2022-10-17T01:47:34.534Z,17.10
2022-10-17T01:52:44.944Z,17.20
2022-10-17T01:57:54.841Z,17.20
2022-10-17T02:03:04.514Z,17.20
2022-10-17T02:08:07.019Z,17.20
2022-10-17T02:13:39.529Z,17.10
2022-10-17T02:19:01.740Z,17.10
2022-10-17T02:24:07.988Z,17.10
2022-10-17T02:29:18.651Z,17.20
2022-10-17T02:34:32.038Z,17.20
2022-10-17T02:39:36.513Z,17.10
2022-10-17T02:44:43.941Z,17.10
2022-10-17T02:49:50.717Z,17.10
2022-10-17T02:55:06.179Z,17.10
2022-10-17T03:00:31.266Z,17.20
2022-10-17T03:05:32.887Z,17.10
2022-10-17T03:10:34.544Z,17.20
2022-10-17T03:15:36.286Z,17.20
2022-10-17T03:20:44.907Z,17.20
2022-10-17T03:25:47.620Z,17.30
2022-10-17T03:30:55.449Z,17.30
2022-10-17T03:35:58.126Z,17.40
2022-10-17T03:40:59.749Z,17.40
2022-10-17T03:46:01.688Z,17.50
2022-10-17T03:51:06.579Z,17.40
2022-10-17T03:56:27.748Z,17.40
2022-10-17T04:01:29.469Z,17.30
2022-10-17T04:06:31.138Z,17.30
2022-10-17T04:11:33.289Z,17.30
2022-10-17T04:16:35.043Z,17.30
2022-10-17T04:21:36.715Z,17.30
2022-10-17T04:26:38.406Z,17.30
2022-10-17T04:31:40.032Z,17.30
2022-10-17T04:36:41.802Z,17.20
2022-10-17T04:41:44.693Z,17.20
2022-10-17T04:46:47.426Z,17.20
2022-10-17T04:51:49.065Z,17.10
2022-10-17T04:56:50.786Z,17.10
2022-10-17T05:01:52.444Z,17.00
2022-10-17T05:06:54.206Z,17.00
2022-10-17T05:11:55.981Z,16.90
2022-10-17T05:16:57.693Z,17.00
2022-10-17T05:21:59.375Z,16.90
2022-10-17T05:27:18.190Z,17.00
2022-10-17T05:32:31.499Z,16.80
2022-10-17T05:37:33.428Z,16.80
2022-10-17T05:42:35.139Z,16.90
2022-10-17T05:47:36.921Z,16.90
2022-10-17T05:52:38.563Z,16.90
2022-10-17T05:57:40.255Z,16.90
2022-10-17T06:02:43.117Z,16.90
2022-10-17T06:07:44.875Z,16.90
2022-10-17T06:12:46.577Z,16.90
2022-10-17T06:17:48.210Z,16.90
2022-10-17T06:22:49.936Z,16.90
2022-10-17T06:32:58.423Z,16.80
2022-10-17T06:38:00.113Z,16.80
2022-10-17T06:43:01.801Z,16.90
2022-10-17T06:48:03.484Z,16.80
2022-10-17T06:53:05.395Z,16.90
2022-10-17T06:58:07.021Z,17.00
2022-10-17T07:03:08.684Z,16.90
2022-10-17T07:08:11.308Z,17.10
2022-10-17T07:13:13.242Z,17.20
2022-10-17T07:18:15.359Z,17.30
2022-10-17T07:23:17.117Z,17.40
2022-10-17T07:28:19.573Z,17.50
2022-10-17T07:33:21.382Z,17.50
2022-10-17T07:38:23.009Z,17.60
2022-10-17T07:43:25.775Z,17.70
2022-10-17T07:48:27.447Z,17.60
2022-10-17T07:53:29.105Z,17.70
2022-10-17T07:58:31.511Z,17.90
2022-10-17T08:03:33.230Z,17.90
2022-10-17T08:08:34.905Z,18.00
2022-10-17T08:13:39.019Z,18.20
2022-10-17T08:18:41.945Z,18.30
2022-10-17T08:23:44.600Z,18.50
2022-10-17T08:28:47.131Z,18.60
2022-10-17T08:33:50.240Z,18.70
2022-10-17T08:38:53.100Z,18.80
2022-10-17T08:44:14.462Z,18.80
2022-10-17T08:49:36.311Z,18.80
2022-10-17T08:54:45.498Z,18.90
2022-10-17T08:59:52.186Z,18.90
2022-10-17T09:05:07.182Z,19.00
2022-10-17T09:10:18.659Z,19.00
2022-10-17T09:15:38.833Z,19.00
2022-10-17T09:20:52.601Z,19.20
2022-10-17T09:25:56.526Z,19.40
2022-10-17T09:31:20.022Z,19.60
2022-10-17T09:36:25.932Z,19.70
2022-10-17T09:41:51.793Z,19.90
2022-10-17T09:46:53.385Z,20.00
2022-10-17T09:51:55.418Z,20.10
2022-10-17T09:57:01.912Z,20.20
2022-10-17T10:02:12.637Z,20.30
2022-10-17T10:07:14.379Z,20.30
2022-10-17T10:12:28.249Z,20.40
2022-10-17T10:17:38.249Z,20.60
2022-10-17T10:22:40.117Z,20.70
2022-10-17T10:27:44.181Z,20.80
2022-10-17T10:32:48.909Z,20.90
2022-10-17T10:37:57.220Z,21.00
2022-10-17T10:43:05.059Z,21.00
2022-10-17T10:48:19.930Z,21.00
2022-10-17T10:53:43.225Z,21.10
2022-10-17T10:59:00.063Z,21.30
2022-10-17T11:04:33.134Z,21.40
2022-10-17T11:09:59.424Z,21.40
2022-10-17T11:15:20.870Z,21.60
2022-10-17T11:20:43.522Z,21.60
2022-10-17T11:25:45.608Z,21.50
2022-10-17T11:31:25.019Z,21.50
2022-10-17T11:36:30.563Z,21.40
2022-10-17T11:41:42.100Z,21.50
2022-10-17T11:46:46.149Z,21.40
2022-10-17T11:52:00.268Z,21.50
2022-10-17T11:57:29.924Z,21.40
2022-10-17T12:02:56.583Z,21.50
2022-10-17T12:08:06.592Z,21.50
2022-10-17T12:13:33.080Z,21.40
2022-10-17T12:18:34.730Z,21.50
2022-10-17T12:23:38.822Z,21.50
2022-10-17T12:28:58.884Z,21.40
2022-10-17T12:34:02.988Z,21.40
2022-10-17T12:39:06.435Z,21.40
2022-10-17T12:44:14.131Z,21.40
2022-10-17T12:49:37.501Z,21.30
2022-10-17T12:54:48.131Z,21.30
2022-10-17T13:00:16.135Z,21.30
2022-10-17T13:05:27.171Z,21.30
2022-10-17T13:10:33.576Z,21.30
2022-10-17T13:15:37.054Z,21.20
2022-10-17T13:20:38.657Z,21.30
2022-10-17T13:25:40.297Z,21.30
2022-10-17T13:30:47.359Z,21.30
2022-10-17T13:36:06.423Z,21.20
2022-10-17T13:46:38.316Z,21.20
2022-10-17T13:51:49.693Z,21.20
2022-10-17T13:56:57.427Z,21.20
2022-10-17T14:02:01.772Z,21.20
2022-10-17T14:07:03.391Z,21.10
2022-10-17T14:12:12.902Z,21.10
2022-10-17T14:17:34.977Z,21.20
2022-10-17T14:22:37.118Z,21.20
2022-10-17T14:28:03.242Z,21.10
2022-10-17T14:33:11.358Z,21.10
2022-10-17T14:38:15.787Z,21.10
2022-10-17T14:43:22.361Z,21.00
2022-10-17T14:48:25.808Z,21.10
2022-10-17T14:53:29.983Z,21.00
2022-10-17T14:58:34.645Z,21.00
2022-10-17T15:03:36.377Z,21.00
2022-10-17T15:08:38.308Z,21.00
2022-10-17T15:13:44.657Z,20.90
2022-10-17T15:18:48.102Z,20.90
2022-10-17T15:23:50.370Z,20.80
2022-10-17T15:28:53.910Z,20.80
2022-10-17T15:33:55.708Z,20.70
2022-10-17T15:38:59.808Z,20.70
2022-10-17T15:44:01.442Z,20.60
2022-10-17T15:49:10.112Z,20.60
2022-10-17T15:59:18.398Z,20.50
2022-10-17T16:04:20.068Z,20.40
2022-10-17T16:09:21.810Z,20.30
2022-10-17T16:14:23.545Z,20.30
2022-10-17T16:19:29.774Z,20.20
2022-10-17T16:24:31.473Z,20.20
2022-10-17T16:29:33.524Z,20.20
2022-10-17T16:34:35.273Z,20.10
2022-10-17T16:39:37.304Z,20.00
2022-10-17T16:44:39.032Z,20.00
2022-10-17T16:49:44.411Z,19.90
2022-10-17T16:54:47.105Z,19.90
2022-10-17T16:59:48.786Z,19.80
2022-10-17T17:10:12.714Z,19.70
2022-10-17T17:15:14.604Z,19.70
2022-10-17T17:20:16.289Z,19.60
2022-10-17T17:25:20.106Z,19.50
2022-10-17T17:30:21.880Z,19.50
2022-10-17T17:35:47.421Z,19.40
2022-10-17T17:40:51.058Z,19.40
2022-10-17T17:45:53.170Z,19.30
2022-10-17T17:51:02.651Z,19.20
2022-10-17T17:56:17.775Z,19.10
2022-10-17T18:01:25.793Z,19.00
2022-10-17T18:06:28.397Z,19.00
2022-10-17T18:11:30.423Z,19.00
2022-10-17T18:16:34.166Z,19.00
2022-10-17T18:21:37.252Z,19.00
2022-10-17T18:27:20.578Z,18.80
2022-10-17T18:32:22.313Z,18.80
2022-10-17T18:37:23.925Z,18.80
2022-10-17T18:42:25.629Z,18.80
2022-10-17T18:47:29.436Z,18.80
2022-10-17T18:52:31.356Z,18.80
2022-10-17T18:57:33.132Z,18.80
2022-10-17T19:02:38.043Z,18.80
2022-10-17T19:07:39.930Z,18.70
2022-10-17T19:12:41.582Z,18.70
2022-10-17T19:17:43.375Z,18.60
2022-10-17T19:22:45.086Z,18.70
2022-10-17T19:27:46.803Z,18.60
2022-10-17T19:32:48.591Z,18.60
2022-10-17T19:37:50.599Z,18.50
2022-10-17T19:42:52.351Z,18.50
2022-10-17T19:47:54.012Z,18.40
2022-10-17T19:52:55.713Z,18.40
2022-10-17T19:57:59.120Z,18.30
2022-10-17T20:03:02.368Z,18.30
2022-10-17T20:08:04.560Z,18.30
2022-10-17T20:13:06.400Z,18.30
2022-10-17T20:18:08.941Z,18.20
2022-10-17T20:23:10.669Z,18.10
2022-10-17T20:28:12.597Z,18.20
2022-10-17T20:33:15.610Z,18.10
2022-10-17T20:38:17.441Z,18.10
2022-10-17T20:43:19.150Z,18.00
2022-10-17T20:48:20.850Z,18.00
2022-10-17T20:53:36.544Z,18.00
2022-10-17T20:58:39.505Z,18.00
2022-10-17T21:03:44.017Z,18.00
2022-10-17T21:08:49.255Z,17.90
2022-10-17T21:13:59.481Z,17.90
2022-10-17T21:19:03.614Z,17.90
2022-10-17T21:24:09.047Z,17.80
2022-10-17T21:29:12.638Z,17.80
2022-10-17T21:34:18.890Z,17.80
2022-10-17T21:39:21.842Z,17.80
2022-10-17T21:44:25.690Z,17.70
2022-10-17T21:49:27.638Z,17.70
2022-10-17T21:54:29.333Z,17.60
2022-10-17T21:59:31.899Z,17.50
2022-10-17T22:04:48.709Z,17.50
2022-10-17T22:09:50.410Z,17.40
2022-10-17T22:14:52.080Z,17.40
2022-10-17T22:19:53.750Z,17.40
2022-10-17T22:24:55.448Z,17.40
2022-10-17T22:29:57.124Z,17.30
2022-10-17T22:34:58.794Z,17.20
2022-10-17T22:40:01.594Z,17.30
2022-10-17T22:45:04.313Z,17.20
2022-10-17T22:50:06.194Z,17.20
2022-10-17T22:55:09.905Z,17.20
2022-10-17T23:00:13.626Z,17.20
2022-10-17T23:05:15.410Z,17.10
2022-10-17T23:10:23.205Z,17.10
2022-10-17T23:15:26.065Z,17.10
2022-10-17T23:20:29.083Z,17.10
2022-10-17T23:25:32.811Z,17.10
2022-10-17T23:30:35.428Z,17.00
2022-10-17T23:35:37.217Z,17.00
2022-10-17T23:40:39.002Z,16.90
2022-10-17T23:50:43.301Z,17.00
2022-10-17T23:55:44.972Z,16.90
